Time;durP1;ratioP1;P1;durP2;ratioP2;P2;SDS_P1;SDS_P2;PMS_P1;PMS_P2;Temp;Humidity;BMP_temperature;BMP_pressure;BME280_temperature;BME280_humidity;BME280_pressure;Samples;Min_cycle;Max_cycle;Signal;HPM_P1;HPM_P2
2024/02/25 00:00:15;;;;;;;4.10;1.95;;;;;;;2.86;69.40;98346.94;5002282;28;20099;-44
2024/02/25 00:02:42;;;;;;;7.55;2.50;;;;;;;2.88;70.52;98349.50;4999925;28;20046;-46
2024/02/25 00:05:09;;;;;;;5.07;2.67;;;;;;;2.88;70.03;98354.59;5000339;28;20061;-47
2024/02/25 00:07:39;;;;;;;4.63;2.22;;;;;;;2.86;70.40;98348.63;4993302;28;20096;-44
2024/02/25 00:10:06;;;;;;;5.13;2.30;;;;;;;2.84;70.02;98351.19;4996880;28;20053;-45
2024/02/25 00:12:33;;;;;;;6.93;2.53;;;;;;;2.83;70.41;98350.34;5003320;28;20137;-47
2024/02/25 00:15:00;;;;;;;4.50;2.60;;;;;;;2.82;70.15;98351.19;5002875;28;20073;-49
2024/02/25 00:17:28;;;;;;;4.80;1.92;;;;;;;2.80;69.71;98352.03;5000858;28;20060;-44
2024/02/25 00:19:56;;;;;;;5.68;3.40;;;;;;;2.78;70.13;98349.50;5004529;28;20360;-45
2024/02/25 00:22:24;;;;;;;3.90;2.67;;;;;;;2.77;69.69;98352.88;5001999;28;20566;-44
2024/02/25 00:24:50;;;;;;;5.05;2.53;;;;;;;2.74;70.98;98349.47;5001566;28;20053;-49
2024/02/25 00:27:17;;;;;;;8.45;3.92;;;;;;;2.70;69.92;98352.03;5000987;28;20523;-43
2024/02/25 00:29:45;;;;;;;5.57;2.42;;;;;;;2.69;70.45;98346.91;5002308;28;20054;-47
2024/02/25 00:32:12;;;;;;;5.65;2.72;;;;;;;2.66;70.16;98345.19;5001624;28;20077;-45
2024/02/25 00:34:39;;;;;;;4.68;1.90;;;;;;;2.65;70.84;98345.19;5005857;28;20053;-42
2024/02/25 00:37:06;;;;;;;9.88;2.42;;;;;;;2.62;70.47;98343.47;5005226;28;20078;-47
2024/02/25 00:39:32;;;;;;;4.88;2.70;;;;;;;2.61;70.79;98343.47;5004921;28;20065;-44
2024/02/25 00:42:01;;;;;;;5.30;2.40;;;;;;;2.57;69.66;98335.81;5004749;28;20054;-51
2024/02/25 00:44:33;;;;;;;4.43;2.10;;;;;;;2.55;70.29;98342.63;5001584;28;20062;-47
2024/02/25 00:47:00;;;;;;;4.47;2.13;;;;;;;2.54;71.05;98346.00;5004507;28;20046;-44
2024/02/25 00:49:27;;;;;;;5.55;3.00;;;;;;;2.51;71.13;98346.03;5008238;28;20248;-45
2024/02/25 00:51:54;;;;;;;8.88;4.22;;;;;;;2.46;69.72;98345.13;5006920;28;20142;-44
2024/02/25 00:54:21;;;;;;;8.07;3.03;;;;;;;2.40;70.01;98345.97;5000878;28;20054;-43
2024/02/25 00:56:48;;;;;;;7.72;3.33;;;;;;;2.36;69.73;98340.88;5001694;28;20140;-48
2024/02/25 00:59:15;;;;;;;8.05;3.25;;;;;;;2.31;69.60;98343.41;5003642;28;20050;-47
2024/02/25 01:01:41;;;;;;;9.55;3.00;;;;;;;2.27;69.98;98341.69;5003783;28;20046;-41
2024/02/25 01:04:08;;;;;;;6.68;2.88;;;;;;;2.25;70.41;98345.94;5013570;28;20565;-48
2024/02/25 01:06:35;;;;;;;4.97;2.65;;;;;;;2.22;70.39;98345.91;5004133;28;20038;-41
2024/02/25 01:09:03;;;;;;;4.78;2.33;;;;;;;2.22;71.22;98343.34;5006180;28;20073;-46
2024/02/25 01:11:31;;;;;;;5.97;2.50;;;;;;;2.19;70.77;98344.22;5001349;28;20073;-46
2024/02/25 01:13:59;;;;;;;10.27;2.50;;;;;;;2.20;70.88;98345.06;5001901;28;20062;-46
2024/02/25 01:16:26;;;;;;;3.75;2.08;;;;;;;2.17;70.88;98341.63;4998565;28;20050;-44
2024/02/25 01:18:53;;;;;;;5.72;2.28;;;;;;;2.16;70.54;98349.31;5007833;28;20057;-43
2024/02/25 01:21:21;;;;;;;5.07;3.95;;;;;;;2.13;70.51;98346.75;5005308;28;20050;-47
2024/02/25 01:23:49;;;;;;;4.03;2.03;;;;;;;2.13;71.31;98346.75;5005656;28;20128;-46
2024/02/25 01:26:17;;;;;;;5.80;3.83;;;;;;;2.12;70.36;98352.69;4997286;28;20057;-44
2024/02/25 01:28:46;;;;;;;4.07;2.05;;;;;;;2.12;71.53;98342.47;5007870;28;20081;-45
2024/02/25 01:31:17;;;;;;;4.75;2.95;;;;;;;2.13;70.38;98350.16;5008130;28;20104;-42
2024/02/25 01:33:45;;;;;;;4.53;2.28;;;;;;;2.15;71.93;98345.03;5005192;28;20156;-43
2024/02/25 01:36:12;;;;;;;3.35;1.65;;;;;;;2.13;71.71;98336.53;5009844;28;20681;-46
2024/02/25 01:38:41;;;;;;;7.85;3.00;;;;;;;2.12;71.17;98334.81;5000677;28;20128;-42
2024/02/25 01:41:08;;;;;;;3.50;1.60;;;;;;;2.12;71.40;98329.69;5007531;28;20140;-47
2024/02/25 01:43:39;;;;;;;5.95;2.90;;;;;;;2.09;71.68;98332.28;5000969;28;20054;-44
2024/02/25 01:46:08;;;;;;;7.70;3.05;;;;;;;2.04;70.40;98335.66;5003919;28;20515;-43
2024/02/25 01:48:35;;;;;;;6.18;3.08;;;;;;;2.00;71.42;98333.94;5003228;28;20514;-46
2024/02/25 01:51:03;;;;;;;4.80;2.88;;;;;;;1.97;70.12;98336.47;5011120;28;20050;-44
2024/02/25 01:53:31;;;;;;;6.97;3.65;;;;;;;1.94;70.27;98333.91;5003248;28;20054;-48
2024/02/25 01:55:58;;;;;;;7.45;2.97;;;;;;;1.92;71.07;98330.47;4999887;28;20049;-43
2024/02/25 01:58:26;;;;;;;6.57;2.85;;;;;;;1.90;70.34;98327.06;5001549;28;20050;-47
2024/02/25 02:00:53;;;;;;;8.00;3.55;;;;;;;1.87;70.65;98324.50;5000304;28;20058;-45
2024/02/25 02:03:20;;;;;;;7.10;3.65;;;;;;;1.85;71.22;98328.72;4996317;28;20064;-48
2024/02/25 02:05:48;;;;;;;9.38;4.00;;;;;;;1.83;70.70;98325.34;5005170;28;20042;-46
2024/02/25 02:08:14;;;;;;;6.93;3.47;;;;;;;1.80;70.34;98327.00;5000367;28;20140;-44
2024/02/25 02:10:41;;;;;;;6.20;4.00;;;;;;;1.79;71.82;98320.22;5005139;28;20426;-48
2024/02/25 02:13:08;;;;;;;5.65;3.05;;;;;;;1.77;71.68;98319.38;4998557;28;20053;-46
2024/02/25 02:15:35;;;;;;;6.60;3.53;;;;;;;1.74;70.92;98318.47;5004999;28;20073;-44
2024/02/25 02:18:03;;;;;;;8.07;3.30;;;;;;;1.70;71.81;98312.50;5006663;28;20050;-51
2024/02/25 02:20:31;;;;;;;8.43;3.05;;;;;;;1.70;71.57;98314.22;5003564;28;20694;-49
2024/02/25 02:22:58;;;;;;;7.10;5.22;;;;;;;1.68;70.52;98314.19;5003108;28;20583;-48
2024/02/25 02:25:24;;;;;;;8.40;4.85;;;;;;;1.66;71.36;98318.44;4998672;28;20132;-54
2024/02/25 02:27:53;;;;;;;8.18;3.65;;;;;;;1.65;71.26;98312.47;4999677;28;20145;-47
2024/02/25 02:30:20;;;;;;;8.07;3.33;;;;;;;1.63;70.50;98313.31;5005161;28;20049;-48
2024/02/25 02:32:47;;;;;;;6.13;2.80;;;;;;;1.60;70.63;98309.06;5004384;28;20076;-45
2024/02/25 02:35:14;;;;;;;7.03;3.05;;;;;;;1.58;70.84;98299.69;5005108;28;20054;-48
2024/02/25 02:37:40;;;;;;;9.23;6.10;;;;;;;1.57;71.65;98308.19;5002910;28;20131;-45
2024/02/25 02:40:08;;;;;;;8.30;4.65;;;;;;;1.56;71.64;98301.38;5004358;28;20552;-45
2024/02/25 02:42:35;;;;;;;6.80;3.17;;;;;;;1.52;70.58;98305.63;5005411;28;20107;-42
2024/02/25 02:45:03;;;;;;;5.10;2.78;;;;;;;1.50;70.83;98300.50;5005051;28;20045;-47
2024/02/25 02:47:30;;;;;;;6.40;4.50;;;;;;;1.48;70.83;98302.19;5002544;28;20050;-45
2024/02/25 02:49:57;;;;;;;8.93;3.05;;;;;;;1.44;71.42;98295.34;5006831;28;20054;-48
2024/02/25 02:52:24;;;;;;;5.85;3.05;;;;;;;1.43;71.88;98296.22;5001582;28;20132;-42
2024/02/25 02:54:52;;;;;;;5.95;2.90;;;;;;;1.40;71.90;98293.63;5003981;28;21020;-48
2024/02/25 02:57:20;;;;;;;5.63;2.88;;;;;;;1.38;71.89;98295.31;5004000;28;20133;-46
2024/02/25 02:59:47;;;;;;;9.57;5.22;;;;;;;1.35;71.99;98292.75;5004508;28;20073;-44
2024/02/25 03:02:14;;;;;;;8.88;5.05;;;;;;;1.33;71.25;98302.09;5005472;28;20077;-48
2024/02/25 03:04:40;;;;;;;7.50;4.60;;;;;;;1.33;70.86;98294.44;4998502;28;20050;-48
2024/02/25 03:07:08;;;;;;;5.93;4.05;;;;;;;1.30;71.92;98295.28;4993611;28;20054;-42
2024/02/25 03:09:35;;;;;;;8.02;5.38;;;;;;;1.30;71.50;98295.28;5001900;28;20136;-44
2024/02/25 03:12:02;;;;;;;5.88;2.95;;;;;;;1.27;71.35;98296.09;5004631;28;20488;-44
2024/02/25 03:14:29;;;;;;;5.57;3.15;;;;;;;1.25;71.52;98297.78;4996856;28;20060;-43
2024/02/25 03:16:55;;;;;;;6.70;3.30;;;;;;;1.25;71.59;98297.78;5003164;28;20052;-43
2024/02/25 03:19:22;;;;;;;6.43;3.67;;;;;;;1.22;72.06;98292.66;5001949;28;20168;-45
2024/02/25 03:21:50;;;;;;;6.45;2.92;;;;;;;1.22;72.13;98287.56;5003237;28;20057;-44
2024/02/25 03:24:17;;;;;;;5.75;2.60;;;;;;;1.22;71.85;98287.56;5005142;28;20830;-46
2024/02/25 03:26:47;;;;;;;7.00;4.80;;;;;;;1.21;70.93;98287.56;5004513;28;20378;-47
2024/02/25 03:29:14;;;;;;;6.90;2.95;;;;;;;1.19;70.99;98292.66;5002641;28;20046;-45
2024/02/25 03:31:41;;;;;;;9.57;3.17;;;;;;;1.20;72.33;98294.34;4999567;28;24175;-44
2024/02/25 03:34:07;;;;;;;6.80;4.22;;;;;;;1.15;71.26;98296.88;5002889;28;20093;-46
2024/02/25 03:36:34;;;;;;;6.20;3.50;;;;;;;1.13;72.37;98297.69;5003127;28;20120;-44
2024/02/25 03:39:01;;;;;;;5.40;2.15;;;;;;;1.10;71.87;98297.69;5004896;28;20080;-45
2024/02/25 03:41:28;;;;;;;8.65;4.68;;;;;;;1.08;71.44;98294.28;5000107;28;20038;-44
2024/02/25 03:43:55;;;;;;;8.77;3.60;;;;;;;1.06;71.26;98293.41;5003748;28;20077;-42
2024/02/25 03:46:22;;;;;;;11.18;5.90;;;;;;;1.03;72.02;98294.22;5002976;28;20054;-47
2024/02/25 03:48:48;;;;;;;19.63;4.05;;;;;;;0.99;72.24;98301.03;4995878;28;20045;-46
2024/02/25 03:51:15;;;;;;;24.42;5.47;;;;;;;0.96;71.84;98295.88;5005259;28;20080;-46
2024/02/25 03:53:44;;;;;;;37.03;7.35;;;;;;;0.91;71.46;98294.97;5002879;28;20108;-47
2024/02/25 03:56:10;;;;;;;13.80;5.45;;;;;;;0.87;71.66;98290.69;4996842;28;20045;-45
2024/02/25 03:58:37;;;;;;;15.48;5.93;;;;;;;0.85;71.63;98287.31;4994316;28;20057;-43
2024/02/25 04:01:05;;;;;;;11.35;4.40;;;;;;;0.84;72.15;98283.88;5005286;28;20049;-43
2024/02/25 04:03:32;;;;;;;11.57;6.35;;;;;;;0.84;71.68;98285.59;5005926;28;20081;-44
2024/02/25 04:06:00;;;;;;;7.82;5.65;;;;;;;0.84;71.75;98290.69;5005220;28;20069;-46
2024/02/25 04:08:27;;;;;;;8.52;4.00;;;;;;;0.83;72.54;98292.38;5006419;28;20077;-48
2024/02/25 04:10:55;;;;;;;7.90;5.65;;;;;;;0.83;71.78;98286.41;5001756;28;20104;-48
2024/02/25 04:13:22;;;;;;;7.47;3.33;;;;;;;0.84;71.70;98290.69;5007554;28;20132;-49
2024/02/25 04:15:48;;;;;;;8.75;3.83;;;;;;;0.82;72.00;98289.81;5008652;28;20042;-46
2024/02/25 04:18:15;;;;;;;9.32;6.03;;;;;;;0.79;72.46;98283.00;4993879;28;20057;-47
2024/02/25 04:20:43;;;;;;;9.25;4.18;;;;;;;0.79;72.08;98288.09;5001601;28;20046;-44
2024/02/25 04:23:10;;;;;;;12.80;5.75;;;;;;;0.77;72.12;98287.22;5006620;28;20049;-43
2024/02/25 04:25:37;;;;;;;9.82;4.78;;;;;;;0.76;71.57;98288.06;5001773;28;20506;-50
2024/02/25 04:28:04;;;;;;;7.78;4.15;;;;;;;0.73;71.68;98288.91;5004244;28;20057;-49
2024/02/25 04:30:31;;;;;;;10.05;5.07;;;;;;;0.71;72.52;98282.94;5005334;28;20041;-46
2024/02/25 04:32:58;;;;;;;14.77;4.47;;;;;;;0.70;72.03;98278.69;5006337;28;20499;-47
2024/02/25 04:35:26;;;;;;;9.48;4.50;;;;;;;0.68;72.30;98277.81;5005764;28;20052;-46
2024/02/25 04:37:53;;;;;;;10.88;3.85;;;;;;;0.66;72.10;98276.06;5006224;28;20050;-46
2024/02/25 04:40:20;;;;;;;7.80;5.47;;;;;;;0.64;72.36;98278.63;5011305;28;20077;-45
2024/02/25 04:42:48;;;;;;;8.57;3.80;;;;;;;0.62;71.52;98275.22;5008290;28;20054;-44
2024/02/25 04:45:15;;;;;;;10.50;4.70;;;;;;;0.61;72.27;98278.63;5005698;28;20132;-46
2024/02/25 04:47:42;;;;;;;8.40;4.18;;;;;;;0.58;72.54;98268.38;5006556;28;20053;-47
2024/02/25 04:50:09;;;;;;;10.25;4.30;;;;;;;0.57;71.66;98274.31;5014195;28;20046;-48
2024/02/25 04:52:36;;;;;;;6.97;3.08;;;;;;;0.54;71.46;98276.84;5010268;28;20053;-50
2024/02/25 04:55:03;;;;;;;9.05;5.03;;;;;;;0.50;71.63;98276.81;5006431;28;20046;-50
2024/02/25 04:57:30;;;;;;;9.93;5.05;;;;;;;0.48;72.30;98283.56;5007953;28;20049;-45
2024/02/25 04:59:57;;;;;;;11.43;4.43;;;;;;;0.44;71.72;98276.75;5007081;28;20056;-46
2024/02/25 05:02:24;;;;;;;8.05;5.70;;;;;;;0.41;72.52;98266.53;5011305;28;20050;-44
2024/02/25 05:04:51;;;;;;;8.63;5.80;;;;;;;0.40;72.10;98269.91;5009030;28;20467;-45
2024/02/25 05:07:17;;;;;;;7.97;4.55;;;;;;;0.36;71.58;98273.25;5002372;28;20049;-44
2024/02/25 05:09:44;;;;;;;9.60;5.25;;;;;;;0.35;71.97;98266.47;5004378;28;20085;-46
2024/02/25 05:12:12;;;;;;;8.50;4.07;;;;;;;0.32;72.26;98268.97;5003555;28;20058;-53
2024/02/25 05:14:38;;;;;;;9.27;4.15;;;;;;;0.30;71.71;98273.22;5003157;28;20050;-46
2024/02/25 05:17:05;;;;;;;9.48;4.72;;;;;;;0.29;72.63;98267.25;5007607;28;20042;-46
2024/02/25 05:19:32;;;;;;;10.18;5.75;;;;;;;0.29;72.63;98266.41;5006859;28;20073;-48
2024/02/25 05:21:58;;;;;;;6.95;4.13;;;;;;;0.27;71.93;98268.09;5007691;28;20060;-44
2024/02/25 05:24:27;;;;;;;11.57;4.93;;;;;;;0.28;72.58;98269.78;5004482;28;20439;-49
2024/02/25 05:26:54;;;;;;;9.02;5.15;;;;;;;0.28;72.35;98274.88;5006142;28;20045;-45
2024/02/25 05:29:21;;;;;;;10.43;3.55;;;;;;;0.26;72.70;98269.78;5002023;28;20050;-45
2024/02/25 05:31:49;;;;;;;10.73;5.78;;;;;;;0.25;72.84;98270.63;5001922;28;20141;-43
2024/02/25 05:34:16;;;;;;;9.18;5.18;;;;;;;0.25;72.15;98276.59;5002428;28;20065;-42
2024/02/25 05:36:42;;;;;;;7.05;3.55;;;;;;;0.22;72.48;98271.44;4997583;28;20046;-50
2024/02/25 05:39:11;;;;;;;10.05;5.93;;;;;;;0.21;72.59;98264.63;5006235;28;20045;-45
2024/02/25 05:41:38;;;;;;;11.25;5.22;;;;;;;0.20;72.78;98269.72;5007217;28;20046;-44
2024/02/25 05:44:05;;;;;;;8.52;5.07;;;;;;;0.18;72.49;98267.16;5006304;28;20053;-48
2024/02/25 05:46:32;;;;;;;10.32;5.68;;;;;;;0.18;72.65;98263.75;5008153;28;20049;-45
2024/02/25 05:48:58;;;;;;;8.95;4.55;;;;;;;0.16;72.87;98266.28;5006357;28;20600;-46
2024/02/25 05:51:25;;;;;;;13.43;5.53;;;;;;;0.15;72.41;98258.63;5003254;28;20061;-44
2024/02/25 05:53:53;;;;;;;12.90;5.70;;;;;;;0.14;72.64;98255.25;5005497;28;20054;-47
2024/02/25 05:56:20;;;;;;;18.52;6.45;;;;;;;0.12;72.97;98264.53;5001842;28;20038;-44
2024/02/25 05:58:46;;;;;;;15.27;4.50;;;;;;;0.10;72.71;98266.22;5006839;28;20042;-46
2024/02/25 06:01:13;;;;;;;14.13;5.28;;;;;;;0.09;73.01;98269.59;5009771;28;20453;-50
2024/02/25 06:03:40;;;;;;;29.02;5.07;;;;;;;0.08;73.03;98273.00;5004168;28;20423;-48
2024/02/25 06:06:06;;;;;;;52.47;7.05;;;;;;;0.05;72.54;98268.72;5004422;28;20539;-46
2024/02/25 06:08:34;;;;;;;41.30;5.18;;;;;;;0.04;73.19;98267.03;4998347;28;20499;-46
2024/02/25 06:11:00;;;;;;;10.93;6.20;;;;;;;0.03;72.69;98259.38;4996068;28;20050;-45
2024/02/25 06:13:27;;;;;;;20.60;5.82;;;;;;;0.01;72.40;98261.88;4998838;28;20053;-48
2024/02/25 06:15:57;;;;;;;18.50;6.70;;;;;;;0.01;72.38;98266.97;4997741;28;20434;-42
2024/02/25 06:18:24;;;;;;;11.95;6.10;;;;;;;0.01;72.50;98268.66;4998693;28;20054;-46
2024/02/25 06:20:50;;;;;;;33.95;5.22;;;;;;;-0.01;72.62;98264.41;5004885;28;20160;-49
2024/02/25 06:23:17;;;;;;;16.90;4.57;;;;;;;-0.01;72.56;98269.50;5008083;28;20530;-47
2024/02/25 06:25:44;;;;;;;14.68;6.53;;;;;;;-0.02;72.91;98262.72;5002153;28;20132;-48
2024/02/25 06:28:10;;;;;;;16.73;6.20;;;;;;;-0.02;73.03;98272.91;5001087;28;20053;-44
2024/02/25 06:30:37;;;;;;;14.70;6.25;;;;;;;-0.02;72.63;98265.25;5007050;28;20050;-45
2024/02/25 06:33:05;;;;;;;12.38;4.35;;;;;;;-0.02;72.30;98267.81;5002982;28;20053;-46
2024/02/25 06:35:32;;;;;;;15.43;7.03;;;;;;;-0.03;72.71;98265.25;5005308;28;20056;-44
2024/02/25 06:37:59;;;;;;;31.58;6.55;;;;;;;-0.05;72.52;98272.84;5003979;28;20127;-47
2024/02/25 06:40:26;;;;;;;49.20;6.15;;;;;;;-0.04;72.64;98264.38;5010205;28;20049;-48
2024/02/25 06:42:52;;;;;;;34.50;4.80;;;;;;;-0.04;72.76;98264.38;5006502;28;20050;-47
2024/02/25 06:45:19;;;;;;;58.58;6.07;;;;;;;-0.05;72.87;98265.22;5007466;28;20049;-49
2024/02/25 06:47:46;;;;;;;19.55;4.60;;;;;;;-0.04;72.93;98264.38;5005269;28;20072;-46
2024/02/25 06:50:13;;;;;;;57.72;7.15;;;;;;;-0.04;72.52;98264.38;5007637;28;20422;-47
2024/02/25 06:52:40;;;;;;;35.28;6.53;;;;;;;-0.04;72.51;98269.47;5004228;28;20049;-48
2024/02/25 06:55:07;;;;;;;84.38;7.07;;;;;;;-0.05;72.55;98260.13;5008381;28;20057;-46
2024/02/25 06:57:34;;;;;;;42.33;6.15;;;;;;;-0.03;72.76;98260.97;5005291;28;20054;-45
2024/02/25 07:00:05;;;;;;;58.55;7.65;;;;;;;-0.01;72.96;98274.59;5004054;28;20054;-44
2024/02/25 07:02:32;;;;;;;48.85;5.45;;;;;;;-0.01;73.11;98269.50;4999457;28;20046;-46
2024/02/25 07:04:59;;;;;;;45.10;7.25;;;;;;;-0.02;73.38;98267.81;5002589;28;20128;-47
2024/02/25 07:07:25;;;;;;;30.42;6.43;;;;;;;-0.01;72.89;98268.63;5007409;28;20068;-43
2024/02/25 07:09:56;;;;;;;16.20;7.00;;;;;;;-0.01;72.83;98268.63;5006023;28;21025;-47
2024/02/25 07:12:24;;;;;;;15.98;8.02;;;;;;;0.00;72.83;98267.81;5006683;28;20042;-44
2024/02/25 07:14:51;;;;;;;14.85;7.55;;;;;;;0.03;72.77;98274.63;5003522;28;20454;-45
2024/02/25 07:17:17;;;;;;;13.80;7.15;;;;;;;0.06;72.95;98267.00;5003394;28;20053;-45
2024/02/25 07:19:45;;;;;;;21.38;8.75;;;;;;;0.09;72.67;98272.13;5001462;28;20052;-47
2024/02/25 07:22:12;;;;;;;16.15;8.50;;;;;;;0.13;73.08;98266.25;5004990;28;20046;-43
2024/02/25 07:24:41;;;;;;;33.70;7.90;;;;;;;0.17;73.23;98267.16;5003695;28;20049;-50
2024/02/25 07:27:08;;;;;;;23.88;7.43;;;;;;;0.19;73.42;98281.59;5004170;28;20996;-49
2024/02/25 07:29:35;;;;;;;16.52;8.85;;;;;;;0.21;72.57;98274.81;5003243;28;20046;-52
2024/02/25 07:32:02;;;;;;;17.00;8.55;;;;;;;0.22;73.35;98271.44;5008589;28;20646;-47
2024/02/25 07:34:29;;;;;;;13.43;6.82;;;;;;;0.25;73.10;98275.72;5004972;28;20053;-49
2024/02/25 07:36:55;;;;;;;20.23;8.13;;;;;;;0.31;73.40;98277.47;5006037;28;20060;-46
2024/02/25 07:39:22;;;;;;;15.15;7.57;;;;;;;0.36;72.89;98283.47;5015128;28;20560;-48
2024/02/25 07:41:49;;;;;;;20.55;8.07;;;;;;;0.41;73.50;98271.63;5003386;28;20060;-48
2024/02/25 07:44:16;;;;;;;17.15;6.30;;;;;;;0.50;73.52;98275.94;5002376;28;20137;-46
2024/02/25 07:46:42;;;;;;;14.27;6.72;;;;;;;0.61;73.03;98270.97;5009091;28;20084;-42
2024/02/25 07:49:09;;;;;;;18.80;6.35;;;;;;;0.68;73.08;98272.72;5001981;28;20061;-48
2024/02/25 07:51:36;;;;;;;17.42;7.43;;;;;;;0.76;72.38;98272.78;5004641;28;20053;-46
2024/02/25 07:54:03;;;;;;;16.80;7.60;;;;;;;0.85;72.65;98277.09;5002427;28;20046;-51
2024/02/25 07:56:30;;;;;;;17.38;8.32;;;;;;;0.95;72.79;98278.03;5002492;28;20042;-43
2024/02/25 07:58:56;;;;;;;16.20;6.28;;;;;;;1.05;72.24;98290.00;5001353;28;20050;-42
2024/02/25 08:01:23;;;;;;;19.70;8.68;;;;;;;1.12;72.60;98285.81;4997656;28;20060;-51
2024/02/25 08:03:51;;;;;;;13.73;6.65;;;;;;;1.21;72.57;98288.41;5003183;28;20046;-45
2024/02/25 08:06:27;;;;;;;15.07;7.38;;;;;;;1.57;73.88;98287.75;4994987;28;20046;-45
2024/02/25 08:08:55;;;;;;;20.63;8.32;;;;;;;2.25;73.22;98276.94;4994725;28;20056;-48
2024/02/25 08:11:22;;;;;;;16.83;7.25;;;;;;;3.13;72.58;98282.97;4995988;28;20050;-47
2024/02/25 08:13:49;;;;;;;18.27;7.32;;;;;;;3.88;71.66;98282.81;4999085;28;20054;-46
2024/02/25 08:16:16;;;;;;;18.17;7.68;;;;;;;4.50;71.05;98282.47;4998199;28;20053;-47
2024/02/25 08:18:45;;;;;;;22.95;9.02;;;;;;;5.09;70.61;98289.72;5000328;28;20125;-47
2024/02/25 08:21:12;;;;;;;18.70;8.25;;;;;;;5.51;69.51;98289.31;4992605;28;20141;-49
2024/02/25 08:23:40;;;;;;;22.20;9.00;;;;;;;6.28;69.29;98288.44;4988439;28;20108;-47
2024/02/25 08:26:07;;;;;;;20.30;10.63;;;;;;;7.16;69.70;98286.25;5008866;28;20058;-44
2024/02/25 08:28:37;;;;;;;19.88;9.52;;;;;;;8.18;68.63;98285.16;5033583;28;20046;-44
2024/02/25 08:31:03;;;;;;;21.98;10.02;;;;;;;9.23;67.39;98287.97;5000200;28;20046;-48
2024/02/25 08:33:30;;;;;;;16.73;9.10;;;;;;;9.85;65.74;98280.28;5000126;28;20049;-52
2024/02/25 08:35:58;;;;;;;14.52;7.05;;;;;;;9.79;64.58;98280.47;4997667;28;20050;-51
2024/02/25 08:38:24;;;;;;;13.65;6.75;;;;;;;9.49;64.11;98282.09;4994245;28;20078;-47
2024/02/25 08:40:51;;;;;;;13.38;6.38;;;;;;;8.99;63.26;98280.78;4994496;28;20142;-45
2024/02/25 08:43:18;;;;;;;12.82;6.47;;;;;;;8.35;63.20;98276.22;4993723;28;20061;-45
2024/02/25 08:45:44;;;;;;;13.73;5.45;;;;;;;7.67;63.58;98269.00;5005669;28;20046;-44
2024/02/25 08:48:11;;;;;;;14.50;5.90;;;;;;;7.21;64.79;98257.84;5002025;28;20049;-45
2024/02/25 08:50:38;;;;;;;12.60;6.00;;;;;;;6.87;65.65;98264.44;5012193;28;20057;-45
2024/02/25 08:53:05;;;;;;;14.77;5.72;;;;;;;6.59;65.83;98264.00;5010355;28;20050;-50
2024/02/25 08:55:31;;;;;;;11.75;5.97;;;;;;;6.35;65.27;98266.91;5010266;28;20057;-42
2024/02/25 08:58:00;;;;;;;12.60;5.47;;;;;;;5.90;66.51;98270.91;5006784;28;20076;-47
2024/02/25 09:00:27;;;;;;;14.63;6.47;;;;;;;5.57;66.89;98257.56;4999848;28;20069;-47
2024/02/25 09:02:55;;;;;;;12.93;5.20;;;;;;;5.39;66.64;98256.94;4997189;28;20117;-44
2024/02/25 09:05:21;;;;;;;10.15;4.97;;;;;;;5.09;67.71;98261.50;4997411;28;20579;-49
2024/02/25 09:07:49;;;;;;;10.18;5.03;;;;;;;5.06;67.96;98266.66;4997876;28;20057;-42
2024/02/25 09:10:19;;;;;;;14.57;6.72;;;;;;;4.89;68.69;98265.09;4991432;28;20389;-47
2024/02/25 09:12:48;;;;;;;13.35;6.25;;;;;;;4.88;69.47;98265.97;5000905;28;20046;-50
2024/02/25 09:15:17;;;;;;;15.32;6.00;;;;;;;4.97;69.65;98251.34;4994394;28;20046;-46
2024/02/25 09:17:44;;;;;;;14.45;6.38;;;;;;;5.22;69.53;98261.38;4997294;28;20038;-47
2024/02/25 09:20:11;;;;;;;14.68;6.38;;;;;;;5.19;69.63;98261.38;5003857;28;20133;-48
2024/02/25 09:22:38;;;;;;;15.70;7.72;;;;;;;5.05;69.10;98264.94;5001844;28;20054;-49
2024/02/25 09:25:05;;;;;;;15.05;6.45;;;;;;;4.86;69.25;98264.25;4997861;28;20050;-45
2024/02/25 09:27:32;;;;;;;15.85;6.40;;;;;;;4.75;69.74;98264.34;4999942;28;20053;-44
2024/02/25 09:29:59;;;;;;;15.73;6.40;;;;;;;4.69;69.89;98260.09;5001541;28;20050;-44
2024/02/25 09:32:29;;;;;;;15.98;7.68;;;;;;;4.60;70.18;98261.03;4996039;28;20416;-48
2024/02/25 09:34:59;;;;;;;15.27;6.85;;;;;;;4.57;69.98;98261.06;4999381;28;20095;-47
2024/02/25 09:37:26;;;;;;;20.35;7.18;;;;;;;4.52;70.39;98249.16;4998919;28;20117;-47
2024/02/25 09:39:52;;;;;;;18.25;7.18;;;;;;;4.40;71.40;98250.94;4999795;28;20421;-46
2024/02/25 09:42:21;;;;;;;20.77;7.57;;;;;;;4.42;71.22;98245.78;5011879;28;20046;-50
2024/02/25 09:44:53;;;;;;;17.42;7.25;;;;;;;4.45;71.16;98243.19;5003449;28;20089;-51
2024/02/25 09:47:21;;;;;;;17.15;6.93;;;;;;;4.45;71.38;98249.19;5003180;28;20653;-45
2024/02/25 09:49:49;;;;;;;26.20;7.63;;;;;;;4.45;71.65;98256.00;5005189;28;20042;-46
2024/02/25 09:52:17;;;;;;;23.55;7.75;;;;;;;4.39;71.55;98258.63;5009137;28;20046;-48
2024/02/25 09:54:46;;;;;;;23.08;9.38;;;;;;;4.35;71.42;98256.06;5002197;28;20136;-48
2024/02/25 09:57:12;;;;;;;22.35;8.30;;;;;;;4.35;71.57;98258.63;5004701;28;20053;-48
2024/02/25 09:59:40;;;;;;;18.17;7.45;;;;;;;4.31;72.01;98253.53;4998432;28;20054;-45
2024/02/25 10:02:08;;;;;;;17.55;6.78;;;;;;;4.11;73.45;98265.63;5008657;28;20054;-47
2024/02/25 10:04:36;;;;;;;19.90;7.38;;;;;;;3.97;73.92;98257.13;5001821;28;20050;-47
2024/02/25 10:07:04;;;;;;;19.58;6.25;;;;;;;3.93;74.77;98255.44;5005913;28;20056;-49
2024/02/25 10:09:32;;;;;;;14.15;5.50;;;;;;;3.85;75.37;98253.78;5003550;28;20145;-50
2024/02/25 10:12:01;;;;;;;17.20;6.57;;;;;;;3.71;76.61;98255.53;5002739;28;20529;-49
2024/02/25 10:14:29;;;;;;;16.65;6.75;;;;;;;3.60;77.88;98253.88;5000606;28;20060;-45
2024/02/25 10:17:04;;;;;;;16.10;6.97;;;;;;;3.67;77.31;98238.47;5002556;28;20049;-47
2024/02/25 10:19:31;;;;;;;13.77;5.90;;;;;;;3.69;77.92;98241.91;4985000;28;20046;-45
2024/02/25 10:24:41;;;;;;;14.20;6.93;;;;;;;3.91;78.51;98244.34;5030065;28;21224;-46
2024/02/25 10:32:28;;;;;;;20.77;7.68;;;;;;;5.12;76.53;98235.81;5081330;27;20378;-45
2024/02/25 10:34:57;;;;;;;19.92;7.60;;;;;;;5.68;76.08;98233.50;5019242;28;20052;-45
2024/02/25 10:37:27;;;;;;;21.35;8.35;;;;;;;6.37;73.95;98234.31;5021141;28;20107;-48
2024/02/25 10:39:57;;;;;;;16.25;7.30;;;;;;;6.92;73.68;98229.16;5012829;28;20061;-49
2024/02/25 10:42:27;;;;;;;17.30;6.93;;;;;;;6.86;72.70;98226.69;5019049;28;20050;-46
2024/02/25 10:44:56;;;;;;;17.80;7.25;;;;;;;7.11;71.78;98221.13;5018422;28;20482;-46
2024/02/25 10:47:28;;;;;;;15.18;5.80;;;;;;;7.14;71.54;98223.66;5039711;28;20407;-46
2024/02/25 10:49:56;;;;;;;17.13;7.53;;;;;;;7.10;71.38;98222.00;5039239;28;20534;-49
2024/02/25 10:52:28;;;;;;;15.20;6.68;;;;;;;6.98;70.57;98224.78;5035062;28;20056;-47
2024/02/25 10:54:58;;;;;;;16.38;6.65;;;;;;;6.85;70.88;98219.84;5035144;28;20110;-48
2024/02/25 10:57:25;;;;;;;14.27;7.70;;;;;;;7.05;70.71;98216.06;5035436;28;20493;-47
2024/02/25 10:59:53;;;;;;;14.02;6.15;;;;;;;7.24;70.09;98215.72;5039777;28;20060;-46
2024/02/25 11:02:23;;;;;;;17.05;7.78;;;;;;;7.57;70.07;98218.56;5034363;28;20426;-47
2024/02/25 11:04:50;;;;;;;14.75;6.93;;;;;;;7.80;68.67;98219.81;5036033;28;20579;-45
2024/02/25 11:07:17;;;;;;;14.35;6.30;;;;;;;8.23;69.14;98218.88;5030025;28;20064;-49
2024/02/25 11:09:48;;;;;;;15.45;5.45;;;;;;;8.29;67.42;98214.44;5025693;28;20076;-48
2024/02/25 11:15:05;;;;;;;10.52;7.22;;;;;;;7.93;67.29;98204.91;5046061;28;20398;-52
2024/02/25 11:17:38;;;;;;;;;;;;;;;7.92;68.35;98211.81;5010430;28;20056;-48
2024/02/25 11:20:09;;;;;;;13.30;6.97;;;;;;;8.05;68.81;98211.53;5016332;28;19948;-46
2024/02/25 11:30:45;;;;;;;6.93;3.35;;;;;;;7.93;67.94;98221.25;5024822;27;20967;-45
2024/02/25 11:33:36;;;;;;;12.07;5.47;;;;;;;7.94;69.26;98222.09;5002891;28;20128;-42
2024/02/25 11:36:08;;;;;;;6.88;3.75;;;;;;;7.85;69.28;98228.28;5004273;28;20049;-46
2024/02/25 11:38:35;;;;;;;11.43;4.75;;;;;;;7.94;69.44;98217.78;5002446;28;20046;-49
2024/02/25 11:41:05;;;;;;;7.75;4.47;;;;;;;7.97;69.20;98217.72;5003791;28;20133;-47
2024/02/25 11:43:32;;;;;;;7.88;3.63;;;;;;;7.90;68.93;98212.72;5000792;28;20454;-53
2024/02/25 11:45:59;;;;;;;9.07;4.93;;;;;;;8.10;70.04;98212.28;4997928;28;20058;-50
2024/02/25 11:48:30;;;;;;;10.35;3.85;;;;;;;8.22;69.61;98200.84;4998837;28;20574;-51
2024/02/25 11:50:59;;;;;;;5.85;3.03;;;;;;;8.34;68.57;98194.53;4989563;28;20054;-49
2024/02/25 11:53:26;;;;;;;6.75;3.25;;;;;;;8.32;67.60;98189.44;4997826;28;20057;-44
2024/02/25 11:55:53;;;;;;;5.90;2.92;;;;;;;8.15;67.14;98178.66;4993217;28;20116;-46